Sainty Vogue — V7CK6 — position and weather

sailwx.info

Track history (hours):
 
Tides and Currents Weather Stations Pressure Air Temp Water Temp Dewpoint Dewpoint Depression Visibility Wind Speed Wind Dir Waves Ship Positions

Sainty Vogue

Last reported at 2017-Dec-13 04:02 UTC. Time now 2017-Dec-17 16:03 UTC.
Position N 36°04' W 004°27'.

Length 158 m; draft 7.8 m.

Type: Ship (hazmat cat D). MMSI: 538005276.

Date/timePositionNaut miles runAvg speedWind from/ knotsBaromVisibWave heightAir tempDewpointWater temp
2017-Dec-13 04:02N 36°04' W 004°27'110.9
2017-Dec-13 03:56N 36°04' W 004°28'511.1
2017-Dec-13 03:27N 36°04' W 004°35'610.8
2017-Dec-13 02:55N 36°03' W 004°42'711.9
2017-Dec-13 02:22N 36°02' W 004°50'612.8
2017-Dec-13 01:55N 36°01' W 004°57'913.6
2017-Dec-13 01:14N 36°01' W 005°08'312.9
2017-Dec-13 01:00N 36°00' W 005°12'713.4
2017-Dec-13 00:30N 35°59' W 005°20'612.8
2017-Dec-13 00:00N 35°57' W 005°27'7 0.4
2017-Dec-12 04:08N 36°01' W 005°20'1 5.2
2017-Dec-12 04:00N 36°01' W 005°19'3 5.8
2017-Dec-12 03:30N 36°02' W 005°16'3 6.2
2017-Dec-12 03:00N 36°03' W 005°12'3 6.0
2017-Dec-12 02:30N 36°03' W 005°09'3 5.4
2017-Dec-12 02:00N 36°03' W 005°05'3 6.0
2017-Dec-12 01:30N 36°03' W 005°02'3 5.8
2017-Dec-12 01:00N 36°04' W 004°58'4 7.1
2017-Dec-12 00:30N 36°04' W 004°54'4 8.1
2017-Dec-11 23:57N 36°03' W 004°48'4 8.9
2017-Dec-11 23:27N 36°02' W 004°43'4 8.3
2017-Dec-11 22:58N 36°01' W 004°38'5 8.3
2017-Dec-11 22:19N 35°59' W 004°32'3 8.5
2017-Dec-11 21:59N 35°57' W 004°29'  
2017-Dec-08 19:46N 36°30' W 000°41'11 7.7
2017-Dec-08 18:17N 36°32' W 000°27'25 9.9
2017-Dec-08 15:44N 36°36' E 000°04'713.7
2017-Dec-08 15:12N 36°38' E 000°13'313.2
2017-Dec-08 15:00N 36°38' E 000°16'4813.1
2017-Dec-08 11:19N 36°46' E 001°16'613.7
2017-Dec-08 10:55N 36°47' E 001°23'  
2017-Dec-03 08:25N 43°11' E 005°09'614.9
2017-Dec-03 08:00N 43°17' E 005°11'613.0
2017-Dec-03 07:30N 43°21' E 005°18'1 2.5
2017-Dec-03 06:58N 43°21' E 005°20'0 0.0
2017-Dec-03 06:30N 43°21' E 005°20'0 0.0
2017-Dec-03 06:00N 43°21' E 005°20'0 0.0
2017-Dec-03 05:29N 43°21' E 005°20'0 0.0
2017-Dec-03 05:00N 43°21' E 005°20'0 0.0
2017-Dec-03 04:30N 43°21' E 005°20'  
Track history (hours):
 
Tides and Currents Weather Stations Pressure Air Temp Water Temp Dewpoint Dewpoint Depression Visibility Wind Speed Wind Dir Waves Ship Positions

Sainty Vogue

Last reported at 2017-Dec-13 04:02 UTC. Time now 2017-Dec-17 16:03 UTC.
Position N 36°04' W 004°27'.

Length 158 m; draft 7.8 m.

Type: Ship (hazmat cat D). MMSI: 538005276.

Date/timePositionNaut miles runAvg speedWind from/ knotsBaromVisibWave heightAir tempDewpointWater temp
2017-Dec-13 04:02N 36°04' W 004°27'110.9
2017-Dec-13 03:56N 36°04' W 004°28'511.1
2017-Dec-13 03:27N 36°04' W 004°35'610.8
2017-Dec-13 02:55N 36°03' W 004°42'711.9
2017-Dec-13 02:22N 36°02' W 004°50'612.8
2017-Dec-13 01:55N 36°01' W 004°57'913.6
2017-Dec-13 01:14N 36°01' W 005°08'312.9
2017-Dec-13 01:00N 36°00' W 005°12'713.4
2017-Dec-13 00:30N 35°59' W 005°20'612.8
2017-Dec-13 00:00N 35°57' W 005°27'7 0.4
2017-Dec-12 04:08N 36°01' W 005°20'1 5.2
2017-Dec-12 04:00N 36°01' W 005°19'3 5.8
2017-Dec-12 03:30N 36°02' W 005°16'3 6.2
2017-Dec-12 03:00N 36°03' W 005°12'3 6.0
2017-Dec-12 02:30N 36°03' W 005°09'3 5.4
2017-Dec-12 02:00N 36°03' W 005°05'3 6.0
2017-Dec-12 01:30N 36°03' W 005°02'3 5.8
2017-Dec-12 01:00N 36°04' W 004°58'4 7.1
2017-Dec-12 00:30N 36°04' W 004°54'4 8.1
2017-Dec-11 23:57N 36°03' W 004°48'4 8.9
2017-Dec-11 23:27N 36°02' W 004°43'4 8.3
2017-Dec-11 22:58N 36°01' W 004°38'5 8.3
2017-Dec-11 22:19N 35°59' W 004°32'3 8.5
2017-Dec-11 21:59N 35°57' W 004°29'  
2017-Dec-08 19:46N 36°30' W 000°41'11 7.7
2017-Dec-08 18:17N 36°32' W 000°27'25 9.9
2017-Dec-08 15:44N 36°36' E 000°04'713.7
2017-Dec-08 15:12N 36°38' E 000°13'313.2
2017-Dec-08 15:00N 36°38' E 000°16'4813.1
2017-Dec-08 11:19N 36°46' E 001°16'613.7
2017-Dec-08 10:55N 36°47' E 001°23'  
2017-Dec-03 08:25N 43°11' E 005°09'614.9
2017-Dec-03 08:00N 43°17' E 005°11'613.0
2017-Dec-03 07:30N 43°21' E 005°18'1 2.5
2017-Dec-03 06:58N 43°21' E 005°20'0 0.0
2017-Dec-03 06:30N 43°21' E 005°20'0 0.0
2017-Dec-03 06:00N 43°21' E 005°20'0 0.0
2017-Dec-03 05:29N 43°21' E 005°20'0 0.0
2017-Dec-03 05:00N 43°21' E 005°20'0 0.0
2017-Dec-03 04:30N 43°21' E 005°20'  

Dump ship's entire track history